sensor_id;sensor_type;location;lat;lon;timestamp;P1;durP1;ratioP1;P2;durP2;ratioP2
22863;SDS011;11599;49.882;8.680;2023-04-03T00:00:51;3.07;;;2.00;;
22863;SDS011;11599;49.882;8.680;2023-04-03T00:11:17;4.28;;;1.90;;
22863;SDS011;11599;49.882;8.680;2023-04-03T00:21:41;3.83;;;1.98;;
22863;SDS011;11599;49.882;8.680;2023-04-03T00:32:08;4.97;;;1.80;;
22863;SDS011;11599;49.882;8.680;2023-04-03T00:42:30;3.17;;;1.83;;
22863;SDS011;11599;49.882;8.680;2023-04-03T00:52:55;3.92;;;1.95;;
22863;SDS011;11599;49.882;8.680;2023-04-03T01:03:20;4.72;;;2.20;;
22863;SDS011;11599;49.882;8.680;2023-04-03T01:13:44;4.38;;;2.20;;
22863;SDS011;11599;49.882;8.680;2023-04-03T01:24:12;4.30;;;1.97;;
22863;SDS011;11599;49.882;8.680;2023-04-03T01:34:38;4.87;;;1.93;;
22863;SDS011;11599;49.882;8.680;2023-04-03T01:45:00;5.23;;;2.03;;
22863;SDS011;11599;49.882;8.680;2023-04-03T01:55:24;4.57;;;2.00;;
22863;SDS011;11599;49.882;8.680;2023-04-03T02:05:46;2.93;;;1.80;;
22863;SDS011;11599;49.882;8.680;2023-04-03T02:16:11;4.30;;;1.67;;
22863;SDS011;11599;49.882;8.680;2023-04-03T02:26:33;4.93;;;1.83;;
22863;SDS011;11599;49.882;8.680;2023-04-03T02:36:57;3.63;;;1.80;;
22863;SDS011;11599;49.882;8.680;2023-04-03T02:47:19;5.37;;;1.80;;
22863;SDS011;11599;49.882;8.680;2023-04-03T02:57:43;6.97;;;2.00;;
22863;SDS011;11599;49.882;8.680;2023-04-03T03:08:07;6.90;;;2.10;;
22863;SDS011;11599;49.882;8.680;2023-04-03T03:18:30;3.20;;;1.60;;
22863;SDS011;11599;49.882;8.680;2023-04-03T03:28:52;3.13;;;1.67;;
22863;SDS011;11599;49.882;8.680;2023-04-03T03:39:16;6.70;;;1.73;;
22863;SDS011;11599;49.882;8.680;2023-04-03T03:49:39;4.15;;;2.03;;
22863;SDS011;11599;49.882;8.680;2023-04-03T04:00:02;4.23;;;1.83;;
22863;SDS011;11599;49.882;8.680;2023-04-03T04:10:24;3.57;;;1.60;;
22863;SDS011;11599;49.882;8.680;2023-04-03T04:20:52;4.60;;;2.10;;
22863;SDS011;11599;49.882;8.680;2023-04-03T04:31:15;3.30;;;1.70;;
22863;SDS011;11599;49.882;8.680;2023-04-03T04:41:39;4.57;;;1.40;;
22863;SDS011;11599;49.882;8.680;2023-04-03T04:52:05;4.90;;;1.80;;
22863;SDS011;11599;49.882;8.680;2023-04-03T05:02:30;3.73;;;1.30;;
22863;SDS011;11599;49.882;8.680;2023-04-03T05:12:52;4.87;;;1.30;;
22863;SDS011;11599;49.882;8.680;2023-04-03T05:23:16;6.10;;;1.47;;
22863;SDS011;11599;49.882;8.680;2023-04-03T05:33:39;4.70;;;1.50;;
22863;SDS011;11599;49.882;8.680;2023-04-03T05:44:05;4.60;;;1.13;;
22863;SDS011;11599;49.882;8.680;2023-04-03T05:54:27;4.63;;;1.27;;
22863;SDS011;11599;49.882;8.680;2023-04-03T06:05:02;12.83;;;2.00;;
22863;SDS011;11599;49.882;8.680;2023-04-03T06:25:42;3.27;;;1.17;;
22863;SDS011;11599;49.882;8.680;2023-04-03T06:36:04;2.50;;;1.10;;
22863;SDS011;11599;49.882;8.680;2023-04-03T06:46:28;7.57;;;1.40;;
22863;SDS011;11599;49.882;8.680;2023-04-03T06:56:50;11.23;;;1.50;;
22863;SDS011;11599;49.882;8.680;2023-04-03T07:07:22;7.90;;;1.40;;
22863;SDS011;11599;49.882;8.680;2023-04-03T07:17:44;8.20;;;1.27;;
22863;SDS011;11599;49.882;8.680;2023-04-03T07:28:14;3.80;;;1.30;;
22863;SDS011;11599;49.882;8.680;2023-04-03T07:38:42;6.57;;;1.27;;
22863;SDS011;11599;49.882;8.680;2023-04-03T07:49:08;7.17;;;1.40;;
22863;SDS011;11599;49.882;8.680;2023-04-03T07:59:36;4.97;;;1.37;;
22863;SDS011;11599;49.882;8.680;2023-04-03T08:10:05;3.80;;;1.53;;
22863;SDS011;11599;49.882;8.680;2023-04-03T08:30:50;5.37;;;1.30;;
22863;SDS011;11599;49.882;8.680;2023-04-03T08:51:31;5.50;;;1.60;;
22863;SDS011;11599;49.882;8.680;2023-04-03T09:01:56;4.03;;;1.40;;
22863;SDS011;11599;49.882;8.680;2023-04-03T09:12:24;4.80;;;1.50;;
22863;SDS011;11599;49.882;8.680;2023-04-03T09:22:47;5.90;;;1.37;;
22863;SDS011;11599;49.882;8.680;2023-04-03T09:33:13;5.50;;;1.57;;
22863;SDS011;11599;49.882;8.680;2023-04-03T10:04:45;4.63;;;1.10;;
22863;SDS011;11599;49.882;8.680;2023-04-03T10:15:11;3.37;;;1.20;;
22863;SDS011;11599;49.882;8.680;2023-04-03T10:25:28;3.53;;;1.40;;
22863;SDS011;11599;49.882;8.680;2023-04-03T10:35:59;4.85;;;1.23;;
22863;SDS011;11599;49.882;8.680;2023-04-03T10:46:31;3.37;;;1.20;;
22863;SDS011;11599;49.882;8.680;2023-04-03T11:17:58;3.53;;;1.07;;
22863;SDS011;11599;49.882;8.680;2023-04-03T11:28:23;4.50;;;1.30;;
22863;SDS011;11599;49.882;8.680;2023-04-03T11:38:55;2.77;;;1.27;;
22863;SDS011;11599;49.882;8.680;2023-04-03T12:10:29;3.97;;;1.20;;
22863;SDS011;11599;49.882;8.680;2023-04-03T13:44:24;6.30;;;1.27;;
22863;SDS011;11599;49.882;8.680;2023-04-03T14:05:11;3.87;;;1.20;;
22863;SDS011;11599;49.882;8.680;2023-04-03T14:15:39;3.10;;;1.23;;
22863;SDS011;11599;49.882;8.680;2023-04-03T14:26:08;2.13;;;1.10;;
22863;SDS011;11599;49.882;8.680;2023-04-03T14:36:32;3.28;;;1.20;;
22863;SDS011;11599;49.882;8.680;2023-04-03T14:46:59;2.57;;;1.47;;
22863;SDS011;11599;49.882;8.680;2023-04-03T14:57:24;3.77;;;1.63;;
22863;SDS011;11599;49.882;8.680;2023-04-03T15:07:57;5.60;;;1.98;;
22863;SDS011;11599;49.882;8.680;2023-04-03T15:28:53;3.43;;;1.60;;
22863;SDS011;11599;49.882;8.680;2023-04-03T15:39:16;3.97;;;1.58;;
22863;SDS011;11599;49.882;8.680;2023-04-03T15:49:49;3.63;;;1.58;;
22863;SDS011;11599;49.882;8.680;2023-04-03T16:00:12;5.13;;;1.30;;
22863;SDS011;11599;49.882;8.680;2023-04-03T16:10:39;2.28;;;0.90;;
22863;SDS011;11599;49.882;8.680;2023-04-03T16:31:25;3.90;;;1.10;;
22863;SDS011;11599;49.882;8.680;2023-04-03T16:41:50;2.93;;;0.90;;
22863;SDS011;11599;49.882;8.680;2023-04-03T16:52:15;3.60;;;1.00;;
22863;SDS011;11599;49.882;8.680;2023-04-03T17:33:53;4.13;;;1.10;;
22863;SDS011;11599;49.882;8.680;2023-04-03T17:44:15;2.97;;;1.07;;
22863;SDS011;11599;49.882;8.680;2023-04-03T17:54:38;5.13;;;0.90;;
22863;SDS011;11599;49.882;8.680;2023-04-03T18:05:00;3.07;;;1.07;;
22863;SDS011;11599;49.882;8.680;2023-04-03T18:15:23;3.77;;;1.07;;
22863;SDS011;11599;49.882;8.680;2023-04-03T18:25:45;3.43;;;1.10;;
22863;SDS011;11599;49.882;8.680;2023-04-03T18:36:09;2.88;;;1.13;;
22863;SDS011;11599;49.882;8.680;2023-04-03T18:46:31;4.22;;;1.20;;
22863;SDS011;11599;49.882;8.680;2023-04-03T18:56:54;4.03;;;1.27;;
22863;SDS011;11599;49.882;8.680;2023-04-03T19:07:15;4.18;;;1.50;;
22863;SDS011;11599;49.882;8.680;2023-04-03T19:17:38;3.67;;;1.30;;
22863;SDS011;11599;49.882;8.680;2023-04-03T19:28:00;4.73;;;1.27;;
22863;SDS011;11599;49.882;8.680;2023-04-03T19:38:23;6.13;;;1.50;;
22863;SDS011;11599;49.882;8.680;2023-04-03T19:48:45;3.27;;;1.13;;
22863;SDS011;11599;49.882;8.680;2023-04-03T19:59:08;4.20;;;1.43;;
22863;SDS011;11599;49.882;8.680;2023-04-03T20:09:29;4.27;;;1.20;;
22863;SDS011;11599;49.882;8.680;2023-04-03T20:19:53;3.85;;;1.10;;
22863;SDS011;11599;49.882;8.680;2023-04-03T20:30:20;6.17;;;0.93;;
22863;SDS011;11599;49.882;8.680;2023-04-03T20:40:43;3.27;;;0.97;;
22863;SDS011;11599;49.882;8.680;2023-04-03T20:51:08;2.47;;;1.10;;
22863;SDS011;11599;49.882;8.680;2023-04-03T21:01:31;2.83;;;1.10;;
22863;SDS011;11599;49.882;8.680;2023-04-03T21:22:35;6.87;;;1.47;;
22863;SDS011;11599;49.882;8.680;2023-04-03T21:33:02;4.60;;;0.90;;
22863;SDS011;11599;49.882;8.680;2023-04-03T21:43:25;3.23;;;1.23;;
22863;SDS011;11599;49.882;8.680;2023-04-03T21:53:50;4.50;;;1.10;;
22863;SDS011;11599;49.882;8.680;2023-04-03T22:04:13;4.53;;;1.17;;
22863;SDS011;11599;49.882;8.680;2023-04-03T22:14:34;4.83;;;1.10;;
22863;SDS011;11599;49.882;8.680;2023-04-03T22:24:57;4.13;;;0.97;;
22863;SDS011;11599;49.882;8.680;2023-04-03T22:35:19;2.67;;;1.33;;
22863;SDS011;11599;49.882;8.680;2023-04-03T22:45:47;3.83;;;1.03;;
22863;SDS011;11599;49.882;8.680;2023-04-03T22:56:09;3.83;;;1.23;;
22863;SDS011;11599;49.882;8.680;2023-04-03T23:06:32;7.10;;;1.20;;
22863;SDS011;11599;49.882;8.680;2023-04-03T23:16:54;8.10;;;1.20;;
22863;SDS011;11599;49.882;8.680;2023-04-03T23:27:17;5.73;;;1.30;;
22863;SDS011;11599;49.882;8.680;2023-04-03T23:37:38;3.37;;;1.30;;
22863;SDS011;11599;49.882;8.680;2023-04-03T23:48:01;7.70;;;1.27;;
22863;SDS011;11599;49.882;8.680;2023-04-03T23:58:22;3.63;;;1.40;;
